createdAt,value
2023-02-12T00:00:06.271Z,70.08
2023-02-12T00:01:06.262Z,70.49
2023-02-12T00:02:06.257Z,70.69
2023-02-12T00:03:06.208Z,70.97
2023-02-12T00:04:06.173Z,71.07
2023-02-12T00:05:06.203Z,71.12
2023-02-12T00:06:06.260Z,71.25
2023-02-12T00:07:06.151Z,71.22
2023-02-12T00:08:06.120Z,71.18
2023-02-12T00:09:06.113Z,71.24
2023-02-12T00:10:06.094Z,71.15
2023-02-12T00:11:06.080Z,71.22
2023-02-12T00:12:06.120Z,71.25
2023-02-12T00:13:06.059Z,71.56
2023-02-12T00:14:06.028Z,71.72
2023-02-12T00:15:06.034Z,71.67
2023-02-12T00:16:06.109Z,71.57
2023-02-12T00:17:06.041Z,71.58
2023-02-12T00:18:06.036Z,71.72
2023-02-12T00:19:05.969Z,71.66
2023-02-12T00:20:05.971Z,71.57
2023-02-12T00:21:05.977Z,71.46
2023-02-12T00:22:05.958Z,71.57
2023-02-12T00:23:05.962Z,71.60
2023-02-12T00:24:05.935Z,71.56
2023-02-12T00:25:05.913Z,71.51
2023-02-12T00:26:05.911Z,71.33
2023-02-12T00:27:05.888Z,71.45
2023-02-12T00:28:05.904Z,71.53
2023-02-12T00:29:05.861Z,71.66
2023-02-12T00:30:05.858Z,71.80
2023-02-12T00:31:05.930Z,71.73
2023-02-12T00:32:05.808Z,71.63
2023-02-12T00:33:05.813Z,71.53
2023-02-12T00:34:05.813Z,71.55
2023-02-12T00:35:05.798Z,71.49
2023-02-12T00:36:05.781Z,71.43
2023-02-12T00:37:05.726Z,71.52
2023-02-12T00:38:05.775Z,71.47
2023-02-12T00:39:05.725Z,71.38
2023-02-12T00:40:05.723Z,71.32
2023-02-12T00:41:05.679Z,71.36
2023-02-12T00:42:06.689Z,71.33
2023-02-12T00:43:06.373Z,71.39
2023-02-12T00:44:07.806Z,71.37
2023-02-12T00:45:05.658Z,71.53
2023-02-12T00:46:05.664Z,71.49
2023-02-12T00:47:05.624Z,71.43
2023-02-12T00:48:05.627Z,71.55
2023-02-12T00:49:05.582Z,71.60
2023-02-12T00:50:05.718Z,71.65
2023-02-12T00:51:05.583Z,71.60
2023-02-12T00:52:05.537Z,71.52
2023-02-12T00:53:05.510Z,71.50
2023-02-12T00:54:05.542Z,71.59
2023-02-12T00:55:05.532Z,71.55
2023-02-12T00:56:05.508Z,71.65
2023-02-12T00:57:05.472Z,71.66
2023-02-12T00:58:05.461Z,71.58
2023-02-12T00:59:05.500Z,71.74
2023-02-12T01:00:05.456Z,71.80
2023-02-12T01:01:05.602Z,71.84
2023-02-12T01:02:05.450Z,71.91
2023-02-12T01:03:05.450Z,71.82
2023-02-12T01:04:05.380Z,71.73
2023-02-12T01:05:05.457Z,71.79
2023-02-12T01:06:05.429Z,71.81
2023-02-12T01:07:05.338Z,71.89
2023-02-12T01:08:05.341Z,71.93
2023-02-12T01:09:05.310Z,71.96
2023-02-12T01:10:05.331Z,71.94
2023-02-12T01:11:05.316Z,71.98
2023-02-12T01:12:05.326Z,72.01
2023-02-12T01:13:05.456Z,71.80
2023-02-12T01:14:05.263Z,71.79
2023-02-12T01:15:05.251Z,71.80
2023-02-12T01:16:05.251Z,71.88
2023-02-12T01:17:05.222Z,71.94
2023-02-12T01:18:05.233Z,72.19
2023-02-12T01:19:05.222Z,72.36
2023-02-12T01:20:05.159Z,72.45
2023-02-12T01:21:05.157Z,72.52
2023-02-12T01:22:05.154Z,72.50
2023-02-12T01:23:05.140Z,72.51
2023-02-12T01:24:05.175Z,72.54
2023-02-12T01:25:05.118Z,72.72
2023-02-12T01:26:05.091Z,72.65
2023-02-12T01:27:05.087Z,72.43
2023-02-12T01:28:05.091Z,72.37
2023-02-12T01:29:05.075Z,72.14
2023-02-12T01:30:05.086Z,72.04
2023-02-12T01:31:05.156Z,72.19
2023-02-12T01:32:05.118Z,72.29
2023-02-12T01:33:04.998Z,72.21
2023-02-12T01:34:04.978Z,72.13
2023-02-12T01:35:05.006Z,72.09
2023-02-12T01:36:05.009Z,72.14
2023-02-12T01:37:04.932Z,72.05
2023-02-12T01:38:04.947Z,72.03
2023-02-12T01:39:04.929Z,72.10
2023-02-12T01:40:04.909Z,72.20
2023-02-12T01:41:04.918Z,72.28
2023-02-12T01:42:04.896Z,72.28
2023-02-12T01:43:04.872Z,72.25
2023-02-12T01:44:04.867Z,72.23
2023-02-12T01:45:04.851Z,72.11
2023-02-12T01:46:04.873Z,72.14
2023-02-12T01:47:04.819Z,72.07
2023-02-12T01:48:04.797Z,72.15
2023-02-12T01:49:04.777Z,72.23
2023-02-12T01:50:04.806Z,72.36
2023-02-12T01:51:04.804Z,72.46
2023-02-12T01:52:04.775Z,72.73
2023-02-12T01:53:04.758Z,72.73
2023-02-12T01:54:04.728Z,72.70
2023-02-12T01:55:04.716Z,72.75
2023-02-12T01:56:04.697Z,72.67
2023-02-12T01:57:04.698Z,72.90
2023-02-12T01:58:04.670Z,73.12
2023-02-12T01:59:04.651Z,73.15
2023-02-12T02:00:04.663Z,73.07
2023-02-12T02:01:04.629Z,73.03
2023-02-12T02:02:04.729Z,73.11
2023-02-12T02:03:04.771Z,73.03
2023-02-12T02:04:04.592Z,73.00
2023-02-12T02:05:04.573Z,73.08
2023-02-12T02:06:04.612Z,73.26
2023-02-12T02:07:04.545Z,73.27
2023-02-12T02:08:04.604Z,73.20
2023-02-12T02:09:04.539Z,73.01
2023-02-12T02:10:04.506Z,73.07
2023-02-12T02:11:04.514Z,73.25
2023-02-12T02:12:04.765Z,73.20
2023-02-12T02:13:04.464Z,73.10
2023-02-12T02:14:04.455Z,73.11
2023-02-12T02:15:04.494Z,73.05
2023-02-12T02:16:04.464Z,73.07
2023-02-12T02:17:04.424Z,73.01
2023-02-12T02:18:04.444Z,72.93
2023-02-12T02:19:04.409Z,72.83
2023-02-12T02:20:04.365Z,72.92
2023-02-12T02:21:04.361Z,72.83
2023-02-12T02:22:04.362Z,72.82
2023-02-12T02:23:04.347Z,72.81
2023-02-12T02:24:04.340Z,73.05
2023-02-12T02:25:04.310Z,73.05
2023-02-12T02:26:04.282Z,72.99
2023-02-12T02:27:04.275Z,73.07
2023-02-12T02:28:04.303Z,73.03
2023-02-12T02:29:04.262Z,72.88
2023-02-12T02:30:04.260Z,73.15
2023-02-12T02:31:04.380Z,73.09
2023-02-12T02:32:04.263Z,73.20
2023-02-12T02:33:04.198Z,73.26
2023-02-12T02:34:04.179Z,73.51
2023-02-12T02:35:04.199Z,73.46
2023-02-12T02:36:04.220Z,73.42
2023-02-12T02:37:04.138Z,73.38
2023-02-12T02:38:04.121Z,73.42
2023-02-12T02:39:04.130Z,73.37
2023-02-12T02:40:04.127Z,73.39
2023-02-12T02:41:04.080Z,73.48
2023-02-12T02:42:04.114Z,73.57
2023-02-12T02:43:04.059Z,73.68
2023-02-12T02:44:04.109Z,73.70
2023-02-12T02:45:04.058Z,73.78
2023-02-12T02:46:04.020Z,73.88
2023-02-12T02:47:04.079Z,74.04
2023-02-12T02:48:04.016Z,74.26
2023-02-12T02:49:03.980Z,74.38
2023-02-12T02:50:04.000Z,74.43
2023-02-12T02:51:03.988Z,74.26
2023-02-12T02:52:03.930Z,74.12
2023-02-12T02:53:03.951Z,74.19
2023-02-12T02:54:03.950Z,74.25
2023-02-12T02:55:03.911Z,74.22
2023-02-12T02:56:03.908Z,74.24
2023-02-12T02:57:03.911Z,74.27
2023-02-12T02:58:03.867Z,74.31
2023-02-12T02:59:03.891Z,74.21
2023-02-12T03:00:03.857Z,74.16
2023-02-12T03:01:03.956Z,74.10
2023-02-12T03:02:03.826Z,74.19
2023-02-12T03:03:03.880Z,74.19
2023-02-12T03:04:03.778Z,74.15
2023-02-12T03:05:03.780Z,74.19
2023-02-12T03:06:03.783Z,74.17
2023-02-12T03:07:03.754Z,74.17
2023-02-12T03:08:03.751Z,74.01
2023-02-12T03:09:03.764Z,74.06
2023-02-12T03:10:03.758Z,74.20
2023-02-12T03:11:03.681Z,74.25
2023-02-12T03:12:03.757Z,74.21
2023-02-12T03:13:03.722Z,74.09
2023-02-12T03:14:03.661Z,74.14
2023-02-12T03:15:03.653Z,74.26
2023-02-12T03:16:03.648Z,74.33
2023-02-12T03:17:03.620Z,74.50
2023-02-12T03:18:03.630Z,74.73
2023-02-12T03:19:03.634Z,74.81
2023-02-12T03:20:03.568Z,74.75
2023-02-12T03:21:03.551Z,74.77
2023-02-12T03:22:03.580Z,74.82
2023-02-12T03:23:03.576Z,74.80
2023-02-12T03:24:03.523Z,74.72
2023-02-12T03:25:03.593Z,74.55
2023-02-12T03:26:03.497Z,74.63
2023-02-12T03:27:03.469Z,74.61
2023-02-12T03:28:03.502Z,74.44
2023-02-12T03:29:03.546Z,74.48
2023-02-12T03:30:03.456Z,74.40
2023-02-12T03:31:03.464Z,74.57
2023-02-12T03:32:03.417Z,74.56
2023-02-12T03:33:03.602Z,74.50
2023-02-12T03:34:03.468Z,74.49
2023-02-12T03:35:03.403Z,74.43
2023-02-12T03:36:03.369Z,74.55
2023-02-12T03:37:03.343Z,74.53
2023-02-12T03:38:03.353Z,74.49
2023-02-12T03:39:03.353Z,74.54
2023-02-12T03:40:03.322Z,74.68
2023-02-12T03:41:03.305Z,74.77
2023-02-12T03:42:03.319Z,74.97
2023-02-12T03:43:03.267Z,74.84
2023-02-12T03:44:03.282Z,74.70
2023-02-12T03:45:03.280Z,74.65
2023-02-12T03:46:03.301Z,74.74
2023-02-12T03:47:03.281Z,74.75
2023-02-12T03:48:03.224Z,74.86
2023-02-12T03:49:03.267Z,74.85
2023-02-12T03:50:03.215Z,75.11
2023-02-12T03:51:03.245Z,75.30
2023-02-12T03:52:03.164Z,75.47
2023-02-12T03:53:03.163Z,75.46
2023-02-12T03:54:03.151Z,75.39
2023-02-12T03:55:03.154Z,75.57
2023-02-12T03:56:03.101Z,75.78
2023-02-12T03:57:03.115Z,75.73
2023-02-12T03:58:03.079Z,75.81
2023-02-12T03:59:03.055Z,75.95
2023-02-12T04:00:03.043Z,75.91
2023-02-12T04:01:03.111Z,76.02
2023-02-12T04:02:03.108Z,75.89
2023-02-12T04:03:02.984Z,75.98
2023-02-12T04:04:03.005Z,76.07
2023-02-12T04:05:03.008Z,76.00
2023-02-12T04:06:02.975Z,76.12
2023-02-12T04:07:02.943Z,76.18
2023-02-12T04:08:02.914Z,76.24
2023-02-12T04:09:02.927Z,76.13
2023-02-12T04:10:02.920Z,76.08
2023-02-12T04:11:02.900Z,76.29
2023-02-12T04:12:02.913Z,76.39
2023-02-12T04:13:02.882Z,76.36
2023-02-12T04:14:02.870Z,76.45
2023-02-12T04:15:02.833Z,76.43
2023-02-12T04:16:02.820Z,76.34
2023-02-12T04:17:02.861Z,76.41
2023-02-12T04:18:02.890Z,76.47
2023-02-12T04:19:02.820Z,76.43
2023-02-12T04:20:02.767Z,76.43
2023-02-12T04:21:02.808Z,76.47
2023-02-12T04:22:02.732Z,76.55
2023-02-12T04:23:02.757Z,76.57
2023-02-12T04:24:02.734Z,76.43
2023-02-12T04:25:02.724Z,76.46
2023-02-12T04:26:02.674Z,76.52
2023-02-12T04:27:02.671Z,76.49
2023-02-12T04:28:02.717Z,76.70
2023-02-12T04:29:02.667Z,76.61
2023-02-12T04:30:02.654Z,76.53
2023-02-12T04:31:02.687Z,76.61
2023-02-12T04:32:02.598Z,76.71
2023-02-12T04:33:02.589Z,76.81
2023-02-12T04:34:02.588Z,76.65
2023-02-12T04:35:02.576Z,76.59
2023-02-12T04:36:02.596Z,76.60
2023-02-12T04:37:02.562Z,76.68
2023-02-12T04:38:02.517Z,76.72
2023-02-12T04:39:02.510Z,76.63
2023-02-12T04:40:02.553Z,76.59
2023-02-12T04:41:02.517Z,76.49
2023-02-12T04:42:02.491Z,76.62
2023-02-12T04:43:02.483Z,76.56
2023-02-12T04:44:02.461Z,76.33
2023-02-12T04:45:02.479Z,76.04
2023-02-12T04:46:02.453Z,76.04
2023-02-12T04:47:02.415Z,76.26
2023-02-12T04:48:02.471Z,76.39
2023-02-12T04:49:02.400Z,76.38
2023-02-12T04:50:02.366Z,76.42
2023-02-12T04:51:02.354Z,76.28
2023-02-12T04:52:02.359Z,76.21
2023-02-12T04:53:02.351Z,76.20
2023-02-12T04:54:02.327Z,76.15
2023-02-12T04:55:02.358Z,76.22
2023-02-12T04:56:02.347Z,76.28
2023-02-12T04:57:02.298Z,76.15
2023-02-12T04:58:02.295Z,76.10
2023-02-12T04:59:02.257Z,75.92
2023-02-12T05:00:02.263Z,75.92
2023-02-12T05:01:02.286Z,75.98
2023-02-12T05:02:02.206Z,76.08
2023-02-12T05:03:02.215Z,76.02
2023-02-12T05:04:02.203Z,76.10
2023-02-12T05:05:02.255Z,76.09
2023-02-12T05:06:02.181Z,76.11
2023-02-12T05:07:02.149Z,76.07
2023-02-12T05:08:02.165Z,76.03
2023-02-12T05:09:02.140Z,76.25
2023-02-12T05:10:02.132Z,76.39
2023-02-12T05:11:02.078Z,76.54
2023-02-12T05:12:02.480Z,76.40
2023-02-12T05:13:02.095Z,76.24
2023-02-12T05:14:02.072Z,76.39
2023-02-12T05:15:02.084Z,76.39
2023-02-12T05:16:02.055Z,76.40
2023-02-12T05:17:02.013Z,76.36
2023-02-12T05:18:02.007Z,76.35
2023-02-12T05:19:01.993Z,76.36
2023-02-12T05:20:01.979Z,76.24
2023-02-12T05:21:01.969Z,76.25
2023-02-12T05:22:01.970Z,76.31
2023-02-12T05:23:01.918Z,76.25
2023-02-12T05:24:01.930Z,76.29
2023-02-12T05:25:01.899Z,76.28
2023-02-12T05:26:01.913Z,76.26
2023-02-12T05:27:01.876Z,76.26
2023-02-12T05:28:01.924Z,76.43
2023-02-12T05:29:01.837Z,76.31
2023-02-12T05:30:01.872Z,76.07
2023-02-12T05:31:01.990Z,76.08
2023-02-12T05:32:01.953Z,76.08
2023-02-12T05:33:01.788Z,76.07
2023-02-12T05:34:01.786Z,76.18
2023-02-12T05:35:01.787Z,76.28
2023-02-12T05:36:01.796Z,76.29
2023-02-12T05:37:01.830Z,76.31
2023-02-12T05:38:01.735Z,76.49
2023-02-12T05:39:01.712Z,76.65
2023-02-12T05:40:01.719Z,76.57
2023-02-12T05:41:01.684Z,76.56
2023-02-12T05:42:01.713Z,76.58
2023-02-12T05:43:01.687Z,76.41
2023-02-12T05:44:01.659Z,76.51
2023-02-12T05:45:01.632Z,76.50
2023-02-12T05:46:01.683Z,76.53
2023-02-12T05:47:01.629Z,76.47
2023-02-12T05:48:03.485Z,76.37
2023-02-12T05:49:01.584Z,76.42
2023-02-12T05:50:01.588Z,76.45
2023-02-12T05:51:01.560Z,76.43
2023-02-12T05:52:01.539Z,76.34
2023-02-12T05:53:01.542Z,76.36
2023-02-12T05:54:01.564Z,76.51
2023-02-12T05:55:01.505Z,76.53
2023-02-12T05:56:01.489Z,76.51
2023-02-12T05:57:01.487Z,76.47
2023-02-12T05:58:01.470Z,76.27
2023-02-12T05:59:01.452Z,76.26
2023-02-12T06:00:01.461Z,76.34
2023-02-12T06:01:01.432Z,76.55
2023-02-12T06:02:01.421Z,76.55
2023-02-12T06:03:01.391Z,76.54
2023-02-12T06:04:01.447Z,76.53
2023-02-12T06:05:01.395Z,76.53
2023-02-12T06:06:01.428Z,76.57
2023-02-12T06:07:01.358Z,76.77
2023-02-12T06:08:01.322Z,76.69
2023-02-12T06:09:01.343Z,76.50
2023-02-12T06:10:01.347Z,76.58
2023-02-12T06:11:01.294Z,76.58
2023-02-12T06:12:01.281Z,76.57
2023-02-12T06:13:01.248Z,76.72
2023-02-12T06:14:01.228Z,76.71
2023-02-12T06:15:01.230Z,76.64
2023-02-12T06:16:01.387Z,76.68
2023-02-12T06:17:01.234Z,76.59
2023-02-12T06:18:01.211Z,76.54
2023-02-12T06:19:01.175Z,76.57
2023-02-12T06:20:01.180Z,76.69
2023-02-12T06:21:01.165Z,76.61
2023-02-12T06:22:01.224Z,76.62
2023-02-12T06:23:01.122Z,76.68
2023-02-12T06:24:01.127Z,76.76
2023-02-12T06:25:01.118Z,76.90
2023-02-12T06:26:01.097Z,76.78
2023-02-12T06:27:01.070Z,76.85
2023-02-12T06:28:01.087Z,76.94
2023-02-12T06:29:01.049Z,76.95
2023-02-12T06:30:01.040Z,76.81
2023-02-12T06:31:01.186Z,76.81
2023-02-12T06:32:01.174Z,76.89
2023-02-12T06:33:01.008Z,76.90
2023-02-12T06:34:01.013Z,77.10
2023-02-12T06:35:00.968Z,77.17
2023-02-12T06:36:01.004Z,77.06
2023-02-12T06:37:00.948Z,77.04
2023-02-12T06:38:00.927Z,77.05
2023-02-12T06:39:00.967Z,77.03
2023-02-12T06:40:00.901Z,77.05
2023-02-12T06:41:00.957Z,76.96
2023-02-12T06:42:00.926Z,77.12
2023-02-12T06:43:00.923Z,77.14
2023-02-12T06:44:00.864Z,77.24
2023-02-12T06:45:00.874Z,77.15
2023-02-12T06:46:00.841Z,77.21
2023-02-12T06:47:00.914Z,77.19
2023-02-12T06:48:00.858Z,77.21
2023-02-12T06:49:00.783Z,77.25
2023-02-12T06:50:00.772Z,77.32
2023-02-12T06:51:00.753Z,77.31
2023-02-12T06:52:03.218Z,77.35
2023-02-12T06:53:00.762Z,77.25
2023-02-12T06:54:00.752Z,77.30
2023-02-12T06:55:00.773Z,77.44
2023-02-12T06:56:00.693Z,77.28
2023-02-12T06:57:00.692Z,77.35
2023-02-12T06:58:00.673Z,77.42
2023-02-12T06:59:00.682Z,77.49
2023-02-12T07:00:00.676Z,77.45
2023-02-12T07:01:00.635Z,77.47
2023-02-12T07:02:00.675Z,77.39
2023-02-12T07:03:00.608Z,77.34
2023-02-12T07:04:00.652Z,77.25
2023-02-12T07:05:00.613Z,77.28
2023-02-12T07:06:00.579Z,77.23
2023-02-12T07:07:00.551Z,77.18
2023-02-12T07:08:00.569Z,77.15
2023-02-12T07:09:00.678Z,77.30
2023-02-12T07:10:00.517Z,77.45
2023-02-12T07:11:00.512Z,77.53
2023-02-12T07:12:00.505Z,77.55
2023-02-12T07:13:00.472Z,77.60
2023-02-12T07:14:00.455Z,77.57
2023-02-12T07:15:00.442Z,77.45
2023-02-12T07:16:00.524Z,77.59
2023-02-12T07:17:00.419Z,77.60
2023-02-12T07:18:00.430Z,77.46
2023-02-12T07:19:00.431Z,77.38
2023-02-12T07:20:00.380Z,77.31
2023-02-12T07:21:00.354Z,77.36
2023-02-12T07:22:00.349Z,77.36
2023-02-12T07:23:00.332Z,77.43
2023-02-12T07:24:00.368Z,77.54
2023-02-12T07:25:00.316Z,77.53
2023-02-12T07:26:00.283Z,77.34
2023-02-12T07:27:00.286Z,77.28
2023-02-12T07:28:00.306Z,77.33
2023-02-12T07:29:00.260Z,77.31
2023-02-12T07:30:00.284Z,77.23
2023-02-12T07:31:00.280Z,77.17
2023-02-12T07:32:00.286Z,77.07
2023-02-12T07:33:00.201Z,77.02
2023-02-12T07:34:00.199Z,76.95
2023-02-12T07:35:00.206Z,76.95
2023-02-12T07:36:00.197Z,76.89
2023-02-12T07:37:00.164Z,76.85
2023-02-12T07:38:00.148Z,76.99
2023-02-12T07:39:00.155Z,76.99
2023-02-12T07:40:00.163Z,76.63
2023-02-12T07:41:00.118Z,76.40
2023-02-12T07:42:00.121Z,76.35
2023-02-12T07:43:00.104Z,76.09
2023-02-12T07:44:00.058Z,76.05
2023-02-12T07:45:00.036Z,75.97
2023-02-12T07:46:00.127Z,75.91
2023-02-12T07:47:00.044Z,75.68
2023-02-12T07:48:00.019Z,75.68
2023-02-12T07:48:59.977Z,75.72
2023-02-12T07:49:59.972Z,75.74
2023-02-12T07:50:59.948Z,75.83
2023-02-12T07:52:00.010Z,75.75
2023-02-12T07:52:59.960Z,75.83
2023-02-12T07:53:59.985Z,75.83
2023-02-12T07:54:59.916Z,75.84
2023-02-12T07:55:59.893Z,75.88
2023-02-12T07:56:59.894Z,75.79
2023-02-12T07:57:59.881Z,75.64
2023-02-12T07:58:59.880Z,75.48
2023-02-12T07:59:59.857Z,75.41
2023-02-12T08:00:59.837Z,75.41
2023-02-12T08:01:59.840Z,75.47
2023-02-12T08:02:59.804Z,75.43
2023-02-12T08:03:59.790Z,75.04
2023-02-12T08:04:59.773Z,74.92
2023-02-12T08:05:59.810Z,75.01
2023-02-12T08:06:59.750Z,74.86
2023-02-12T08:07:59.728Z,74.81
2023-02-12T08:08:59.739Z,74.83
2023-02-12T08:09:59.765Z,74.82
2023-02-12T08:10:59.699Z,74.68
2023-02-12T08:11:59.708Z,74.83
2023-02-12T08:12:59.684Z,75.00
2023-02-12T08:13:59.648Z,74.97
2023-02-12T08:14:59.735Z,74.88
2023-02-12T08:15:59.666Z,75.10
2023-02-12T08:16:59.638Z,74.92
2023-02-12T08:17:59.615Z,74.76
2023-02-12T08:19:14.630Z,74.89
2023-02-12T08:20:00.609Z,74.70
2023-02-12T08:20:59.581Z,74.54
2023-02-12T08:21:59.530Z,74.39
2023-02-12T08:22:59.523Z,74.31
2023-02-12T08:23:59.540Z,74.12
2023-02-12T08:24:59.521Z,74.18
2023-02-12T08:25:59.517Z,74.35
2023-02-12T08:26:59.553Z,74.37
2023-02-12T08:27:59.477Z,74.35
2023-02-12T08:28:59.461Z,73.98
2023-02-12T08:29:59.496Z,74.08
2023-02-12T08:30:59.477Z,73.94
2023-02-12T08:31:59.707Z,73.91
2023-02-12T08:32:59.407Z,74.03
2023-02-12T08:33:59.388Z,73.71
2023-02-12T08:34:59.378Z,73.57
2023-02-12T08:36:00.037Z,73.13
2023-02-12T08:36:59.396Z,73.19
2023-02-12T08:37:59.354Z,72.92
2023-02-12T08:38:59.331Z,72.57
2023-02-12T08:39:59.408Z,72.62
2023-02-12T08:40:59.328Z,72.66
2023-02-12T08:41:59.304Z,72.51
2023-02-12T08:42:59.308Z,72.64
2023-02-12T08:43:59.281Z,72.64
2023-02-12T08:44:59.249Z,72.53
2023-02-12T08:45:59.273Z,72.68
2023-02-12T08:46:59.212Z,72.79
2023-02-12T08:47:59.250Z,72.85
2023-02-12T08:48:59.309Z,73.00
2023-02-12T08:49:59.345Z,72.61
2023-02-12T08:50:59.338Z,72.89
2023-02-12T08:51:59.150Z,72.85
2023-02-12T08:52:59.140Z,72.84
2023-02-12T08:53:59.260Z,72.71
2023-02-12T08:54:59.133Z,72.69
2023-02-12T08:55:59.211Z,73.00
2023-02-12T08:57:00.926Z,72.28
2023-02-12T08:58:00.115Z,72.43
2023-02-12T08:58:59.230Z,71.82
2023-02-12T08:59:59.254Z,71.68
2023-02-12T09:00:59.080Z,71.93
2023-02-12T09:01:59.045Z,72.17
2023-02-12T09:02:59.000Z,72.02
2023-02-12T09:03:58.994Z,71.77
2023-02-12T09:04:58.966Z,71.57
2023-02-12T09:05:59.056Z,71.67
2023-02-12T09:06:58.935Z,71.81
2023-02-12T09:07:58.930Z,71.63
2023-02-12T09:08:59.013Z,71.76
2023-02-12T09:09:58.906Z,72.14
2023-02-12T09:10:58.927Z,71.77
2023-02-12T09:11:58.904Z,71.62
2023-02-12T09:12:58.866Z,71.36
2023-02-12T09:13:58.846Z,71.17
2023-02-12T09:14:58.860Z,71.30
2023-02-12T09:15:59.133Z,71.21
2023-02-12T09:16:58.880Z,71.28
2023-02-12T09:17:58.797Z,71.47
2023-02-12T09:18:58.771Z,71.18
2023-02-12T09:19:58.782Z,71.19
2023-02-12T09:20:58.776Z,70.96
2023-02-12T09:21:58.818Z,71.07
2023-02-12T09:22:58.783Z,71.25
2023-02-12T09:23:58.743Z,71.04
2023-02-12T09:24:58.697Z,70.83
2023-02-12T09:25:58.947Z,69.24
2023-02-12T09:26:58.698Z,69.05
2023-02-12T09:27:58.732Z,68.91
2023-02-12T09:28:58.659Z,68.66
2023-02-12T09:29:58.684Z,68.79
2023-02-12T09:30:58.682Z,68.88
2023-02-12T09:31:58.713Z,68.92
2023-02-12T09:32:58.629Z,69.11
2023-02-12T09:33:58.582Z,69.39
2023-02-12T09:34:58.568Z,69.68
2023-02-12T09:35:58.587Z,69.79
2023-02-12T09:36:58.557Z,69.96
2023-02-12T09:37:58.544Z,70.10
2023-02-12T09:38:58.519Z,69.69
2023-02-12T09:39:58.511Z,69.69
2023-02-12T09:40:58.524Z,69.97
2023-02-12T09:41:58.532Z,70.06
2023-02-12T09:42:58.470Z,70.15
2023-02-12T09:43:58.448Z,70.59
2023-02-12T09:44:58.427Z,69.44
2023-02-12T09:45:58.954Z,69.67
2023-02-12T09:46:58.427Z,69.90
2023-02-12T09:47:58.424Z,69.39
2023-02-12T09:48:58.504Z,69.39
2023-02-12T09:49:58.394Z,69.75
2023-02-12T09:50:58.380Z,69.40
2023-02-12T09:51:58.360Z,69.38
2023-02-12T09:52:58.444Z,69.42
2023-02-12T09:53:58.365Z,69.30
2023-02-12T09:54:58.344Z,69.25
2023-02-12T09:55:58.578Z,69.47
2023-02-12T09:56:58.286Z,69.50
2023-02-12T09:57:58.272Z,69.57
2023-02-12T09:58:58.451Z,69.45
2023-02-12T09:59:58.272Z,69.61
2023-02-12T10:00:58.237Z,69.61
2023-02-12T10:01:58.259Z,69.69
2023-02-12T10:02:58.199Z,69.67
2023-02-12T10:03:58.280Z,69.72
2023-02-12T10:05:01.985Z,69.81
2023-02-12T10:05:58.514Z,70.11
2023-02-12T10:06:58.170Z,69.97
2023-02-12T10:07:58.145Z,69.97
2023-02-12T10:08:58.147Z,69.93
2023-02-12T10:09:58.142Z,70.07
2023-02-12T10:10:58.141Z,70.09
2023-02-12T10:11:58.101Z,69.95
2023-02-12T10:12:58.125Z,69.95
2023-02-12T10:13:58.176Z,69.95
2023-02-12T10:14:58.049Z,70.11
2023-02-12T10:15:58.427Z,70.61
2023-02-12T10:16:58.023Z,70.84
2023-02-12T10:17:58.142Z,70.35
2023-02-12T10:18:57.999Z,70.20
2023-02-12T10:19:57.983Z,70.18
2023-02-12T10:20:58.387Z,70.03
2023-02-12T10:21:57.982Z,69.78
2023-02-12T10:22:58.125Z,69.55
2023-02-12T10:23:57.942Z,69.81
2023-02-12T10:24:57.922Z,69.30
2023-02-12T10:25:58.211Z,69.28
2023-02-12T10:26:57.945Z,69.28
2023-02-12T10:27:57.960Z,69.10
2023-02-12T10:28:57.860Z,69.09
2023-02-12T10:29:57.855Z,68.02
2023-02-12T10:30:57.986Z,68.33
2023-02-12T10:31:58.790Z,68.60
2023-02-12T10:32:57.802Z,68.49
2023-02-12T10:33:57.806Z,68.50
2023-02-12T10:34:57.787Z,68.39
2023-02-12T10:35:58.166Z,68.40
2023-02-12T10:36:57.789Z,68.46
2023-02-12T10:37:57.775Z,68.42
2023-02-12T10:38:57.726Z,68.47
2023-02-12T10:39:57.709Z,68.07
2023-02-12T10:40:57.704Z,67.77
2023-02-12T10:41:57.738Z,67.67
2023-02-12T10:42:57.713Z,67.30
2023-02-12T10:43:57.649Z,67.16
2023-02-12T10:44:57.638Z,67.00
2023-02-12T10:45:58.118Z,67.10
2023-02-12T10:46:57.609Z,67.32
2023-02-12T10:47:57.669Z,66.75
2023-02-12T10:48:57.584Z,66.63
2023-02-12T10:49:57.580Z,67.05
2023-02-12T10:50:57.558Z,67.09
2023-02-12T10:51:57.553Z,66.50
2023-02-12T10:52:57.541Z,66.13
2023-02-12T10:53:57.572Z,66.11
2023-02-12T10:54:57.546Z,66.38
2023-02-12T10:55:57.811Z,66.67
2023-02-12T10:56:57.484Z,66.64
2023-02-12T10:57:57.495Z,66.45
2023-02-12T10:58:57.455Z,65.72
2023-02-12T10:59:57.497Z,65.82
2023-02-12T11:00:57.448Z,65.31
2023-02-12T11:01:57.446Z,65.51
2023-02-12T11:02:57.442Z,65.60
2023-02-12T11:03:57.399Z,65.28
2023-02-12T11:04:57.453Z,64.94
2023-02-12T11:05:57.730Z,65.06
2023-02-12T11:06:57.345Z,65.22
2023-02-12T11:07:57.719Z,65.07
2023-02-12T11:08:57.334Z,64.68
2023-02-12T11:09:57.336Z,65.24
2023-02-12T11:10:57.285Z,65.24
2023-02-12T11:11:57.287Z,65.19
2023-02-12T11:12:57.276Z,65.16
2023-02-12T11:13:57.276Z,65.08
2023-02-12T11:14:57.287Z,65.34
2023-02-12T11:15:57.402Z,65.30
2023-02-12T11:16:57.238Z,65.24
2023-02-12T11:17:57.217Z,65.20
2023-02-12T11:18:57.177Z,65.23
2023-02-12T11:19:57.202Z,65.32
2023-02-12T11:20:57.190Z,65.90
2023-02-12T11:21:57.142Z,65.82
2023-02-12T11:22:57.439Z,66.20
2023-02-12T11:23:57.137Z,65.89
2023-02-12T11:25:01.207Z,66.69
2023-02-12T11:25:57.471Z,66.07
2023-02-12T11:26:57.075Z,66.59
2023-02-12T11:27:57.073Z,65.72
2023-02-12T11:28:57.131Z,64.46
2023-02-12T11:29:57.084Z,64.08
2023-02-12T11:30:57.278Z,63.11
2023-02-12T11:31:57.074Z,63.07
2023-02-12T11:32:57.609Z,62.94
2023-02-12T11:33:56.966Z,62.47
2023-02-12T11:34:57.228Z,62.53
2023-02-12T11:35:58.257Z,62.77
2023-02-12T11:36:57.023Z,62.62
2023-02-12T11:37:56.924Z,62.80
2023-02-12T11:38:56.898Z,63.18
2023-02-12T11:39:56.934Z,63.00
2023-02-12T11:40:57.184Z,62.42
2023-02-12T11:41:56.911Z,62.03
2023-02-12T11:42:56.858Z,62.00
2023-02-12T11:43:56.840Z,61.02
2023-02-12T11:44:56.850Z,60.41
2023-02-12T11:45:56.831Z,60.56
2023-02-12T11:46:56.842Z,60.74
2023-02-12T11:47:56.804Z,60.97
2023-02-12T11:48:56.827Z,61.32
2023-02-12T11:49:56.784Z,60.81
2023-02-12T11:50:56.868Z,60.60
2023-02-12T11:51:56.734Z,60.60
2023-02-12T11:52:56.744Z,60.87
2023-02-12T11:53:56.742Z,61.35
2023-02-12T11:54:56.717Z,61.79
2023-02-12T11:55:56.752Z,62.14
2023-02-12T11:56:56.695Z,62.39
2023-02-12T11:57:56.663Z,61.81
2023-02-12T11:58:56.673Z,61.64
2023-02-12T11:59:56.723Z,61.89
2023-02-12T12:00:56.674Z,62.30
2023-02-12T12:01:56.610Z,62.30
2023-02-12T12:02:56.635Z,62.00
2023-02-12T12:03:56.606Z,62.21
2023-02-12T12:04:56.645Z,62.64
2023-02-12T12:05:56.900Z,62.51
2023-02-12T12:06:56.557Z,62.46
2023-02-12T12:07:56.538Z,62.32
2023-02-12T12:08:56.512Z,62.38
2023-02-12T12:09:56.530Z,62.58
2023-02-12T12:10:56.509Z,62.72
2023-02-12T12:11:56.514Z,62.76
2023-02-12T12:12:56.487Z,62.69
2023-02-12T12:13:56.453Z,63.01
2023-02-12T12:14:56.462Z,63.19
2023-02-12T12:15:56.796Z,63.11
2023-02-12T12:16:56.398Z,63.05
2023-02-12T12:17:56.407Z,62.93
2023-02-12T12:18:56.401Z,62.68
2023-02-12T12:19:56.376Z,62.55
2023-02-12T12:20:56.395Z,62.42
2023-02-12T12:21:56.336Z,61.84
2023-02-12T12:22:56.335Z,62.02
2023-02-12T12:23:56.331Z,61.53
2023-02-12T12:24:56.290Z,61.67
2023-02-12T12:25:56.607Z,61.79
2023-02-12T12:26:56.281Z,62.03
2023-02-12T12:27:56.254Z,62.37
2023-02-12T12:28:56.245Z,62.45
2023-02-12T12:29:56.265Z,62.64
2023-02-12T12:30:56.228Z,62.71
2023-02-12T12:31:56.308Z,62.56
2023-02-12T12:32:56.204Z,62.58
2023-02-12T12:33:56.178Z,62.13
2023-02-12T12:34:56.168Z,62.08
2023-02-12T12:35:56.512Z,61.89
2023-02-12T12:36:56.196Z,62.13
2023-02-12T12:37:56.165Z,62.11
2023-02-12T12:38:56.103Z,62.25
2023-02-12T12:39:56.116Z,62.05
2023-02-12T12:40:56.079Z,61.95
2023-02-12T12:41:56.080Z,62.44
2023-02-12T12:42:56.064Z,62.59
2023-02-12T12:43:56.038Z,62.63
2023-02-12T12:44:56.102Z,63.02
2023-02-12T12:45:56.415Z,62.63
2023-02-12T12:46:56.025Z,62.46
2023-02-12T12:47:56.030Z,62.31
2023-02-12T12:48:56.026Z,62.52
2023-02-12T12:49:55.998Z,62.57
2023-02-12T12:50:55.957Z,61.84
2023-02-12T12:51:55.961Z,61.40